sensor_id;sensor_type;location;lat;lon;timestamp;P1;durP1;ratioP1;P2;durP2;ratioP2
14688;SDS011;7432;48.728;9.154;2023-06-04T00:02:01;8.73;;;7.83;;
14688;SDS011;7432;48.728;9.154;2023-06-04T00:04:27;8.97;;;8.07;;
14688;SDS011;7432;48.728;9.154;2023-06-04T00:06:55;9.63;;;7.80;;
14688;SDS011;7432;48.728;9.154;2023-06-04T00:09:21;8.43;;;7.63;;
14688;SDS011;7432;48.728;9.154;2023-06-04T00:11:48;8.67;;;7.40;;
14688;SDS011;7432;48.728;9.154;2023-06-04T00:14:15;8.57;;;7.70;;
14688;SDS011;7432;48.728;9.154;2023-06-04T00:16:42;8.20;;;7.47;;
14688;SDS011;7432;48.728;9.154;2023-06-04T00:19:08;8.40;;;7.70;;
14688;SDS011;7432;48.728;9.154;2023-06-04T00:21:35;7.73;;;7.03;;
14688;SDS011;7432;48.728;9.154;2023-06-04T00:24:02;8.57;;;7.70;;
14688;SDS011;7432;48.728;9.154;2023-06-04T00:26:28;8.57;;;7.60;;
14688;SDS011;7432;48.728;9.154;2023-06-04T00:28:55;8.67;;;7.87;;
14688;SDS011;7432;48.728;9.154;2023-06-04T00:31:22;8.10;;;7.40;;
14688;SDS011;7432;48.728;9.154;2023-06-04T00:33:49;10.43;;;7.37;;
14688;SDS011;7432;48.728;9.154;2023-06-04T00:36:15;8.27;;;7.47;;
14688;SDS011;7432;48.728;9.154;2023-06-04T00:38:42;7.30;;;6.80;;
14688;SDS011;7432;48.728;9.154;2023-06-04T00:41:08;8.70;;;7.80;;
14688;SDS011;7432;48.728;9.154;2023-06-04T00:43:34;8.47;;;7.77;;
14688;SDS011;7432;48.728;9.154;2023-06-04T00:46:01;8.20;;;7.43;;
14688;SDS011;7432;48.728;9.154;2023-06-04T00:48:29;8.27;;;7.47;;
14688;SDS011;7432;48.728;9.154;2023-06-04T00:50:56;9.33;;;7.90;;
14688;SDS011;7432;48.728;9.154;2023-06-04T00:53:24;8.63;;;7.82;;
14688;SDS011;7432;48.728;9.154;2023-06-04T00:55:51;8.47;;;7.67;;
14688;SDS011;7432;48.728;9.154;2023-06-04T00:58:17;8.07;;;7.27;;
14688;SDS011;7432;48.728;9.154;2023-06-04T01:00:45;8.17;;;7.37;;
14688;SDS011;7432;48.728;9.154;2023-06-04T01:03:13;9.40;;;7.47;;
14688;SDS011;7432;48.728;9.154;2023-06-04T01:05:47;8.47;;;7.63;;
14688;SDS011;7432;48.728;9.154;2023-06-04T01:08:16;10.03;;;7.73;;
14688;SDS011;7432;48.728;9.154;2023-06-04T01:10:50;8.40;;;7.63;;
14688;SDS011;7432;48.728;9.154;2023-06-04T01:13:17;8.10;;;7.40;;
14688;SDS011;7432;48.728;9.154;2023-06-04T01:15:43;8.07;;;7.37;;
14688;SDS011;7432;48.728;9.154;2023-06-04T01:18:10;8.57;;;7.73;;
14688;SDS011;7432;48.728;9.154;2023-06-04T01:20:54;8.93;;;8.13;;
14688;SDS011;7432;48.728;9.154;2023-06-04T01:23:25;8.27;;;7.47;;
14688;SDS011;7432;48.728;9.154;2023-06-04T01:25:59;9.20;;;7.93;;
14688;SDS011;7432;48.728;9.154;2023-06-04T01:28:27;9.40;;;8.23;;
14688;SDS011;7432;48.728;9.154;2023-06-04T01:30:55;8.10;;;7.50;;
14688;SDS011;7432;48.728;9.154;2023-06-04T01:33:24;9.00;;;7.83;;
14688;SDS011;7432;48.728;9.154;2023-06-04T01:35:51;9.77;;;8.87;;
14688;SDS011;7432;48.728;9.154;2023-06-04T01:38:19;8.67;;;7.90;;
14688;SDS011;7432;48.728;9.154;2023-06-04T01:40:45;10.23;;;7.83;;
14688;SDS011;7432;48.728;9.154;2023-06-04T01:43:12;9.30;;;8.40;;
14688;SDS011;7432;48.728;9.154;2023-06-04T01:45:39;8.40;;;7.47;;
14688;SDS011;7432;48.728;9.154;2023-06-04T01:48:06;8.33;;;7.47;;
14688;SDS011;7432;48.728;9.154;2023-06-04T01:50:32;10.93;;;7.53;;
14688;SDS011;7432;48.728;9.154;2023-06-04T01:52:59;7.77;;;6.97;;
14688;SDS011;7432;48.728;9.154;2023-06-04T01:55:27;7.70;;;7.10;;
14688;SDS011;7432;48.728;9.154;2023-06-04T01:57:58;8.80;;;7.20;;
14688;SDS011;7432;48.728;9.154;2023-06-04T02:00:25;7.17;;;6.57;;
14688;SDS011;7432;48.728;9.154;2023-06-04T02:02:52;7.23;;;6.60;;
14688;SDS011;7432;48.728;9.154;2023-06-04T02:05:20;7.63;;;6.80;;
14688;SDS011;7432;48.728;9.154;2023-06-04T02:07:47;7.40;;;6.80;;
14688;SDS011;7432;48.728;9.154;2023-06-04T02:10:14;7.40;;;6.80;;
14688;SDS011;7432;48.728;9.154;2023-06-04T02:12:53;8.60;;;7.80;;
14688;SDS011;7432;48.728;9.154;2023-06-04T02:15:22;8.43;;;7.47;;
14688;SDS011;7432;48.728;9.154;2023-06-04T02:17:48;7.83;;;7.00;;
14688;SDS011;7432;48.728;9.154;2023-06-04T02:20:16;7.53;;;6.83;;
14688;SDS011;7432;48.728;9.154;2023-06-04T02:22:43;8.03;;;7.13;;
14688;SDS011;7432;48.728;9.154;2023-06-04T02:25:09;7.67;;;6.93;;
14688;SDS011;7432;48.728;9.154;2023-06-04T02:27:35;8.57;;;7.67;;
14688;SDS011;7432;48.728;9.154;2023-06-04T02:30:03;7.87;;;7.17;;
14688;SDS011;7432;48.728;9.154;2023-06-04T02:32:31;7.83;;;7.23;;
14688;SDS011;7432;48.728;9.154;2023-06-04T02:34:58;8.20;;;7.40;;
14688;SDS011;7432;48.728;9.154;2023-06-04T02:37:25;7.80;;;7.10;;
14688;SDS011;7432;48.728;9.154;2023-06-04T02:39:51;8.20;;;7.30;;
14688;SDS011;7432;48.728;9.154;2023-06-04T02:42:17;7.60;;;7.00;;
14688;SDS011;7432;48.728;9.154;2023-06-04T02:44:44;8.10;;;7.33;;
14688;SDS011;7432;48.728;9.154;2023-06-04T02:47:12;7.47;;;6.77;;
14688;SDS011;7432;48.728;9.154;2023-06-04T02:49:38;8.70;;;7.80;;
14688;SDS011;7432;48.728;9.154;2023-06-04T02:52:05;8.07;;;7.27;;
14688;SDS011;7432;48.728;9.154;2023-06-04T02:54:32;8.27;;;7.50;;
14688;SDS011;7432;48.728;9.154;2023-06-04T02:56:58;8.13;;;7.33;;
14688;SDS011;7432;48.728;9.154;2023-06-04T02:59:25;8.80;;;7.90;;
14688;SDS011;7432;48.728;9.154;2023-06-04T03:01:51;7.37;;;6.77;;
14688;SDS011;7432;48.728;9.154;2023-06-04T03:04:19;7.80;;;7.10;;
14688;SDS011;7432;48.728;9.154;2023-06-04T03:06:45;8.27;;;7.60;;
14688;SDS011;7432;48.728;9.154;2023-06-04T03:09:12;8.27;;;7.47;;
14688;SDS011;7432;48.728;9.154;2023-06-04T03:11:38;8.67;;;7.77;;
14688;SDS011;7432;48.728;9.154;2023-06-04T03:14:05;8.73;;;7.87;;
14688;SDS011;7432;48.728;9.154;2023-06-04T03:16:31;11.40;;;8.03;;
14688;SDS011;7432;48.728;9.154;2023-06-04T03:18:58;8.90;;;7.27;;
14688;SDS011;7432;48.728;9.154;2023-06-04T03:21:26;7.90;;;7.20;;
14688;SDS011;7432;48.728;9.154;2023-06-04T03:23:53;7.63;;;7.03;;
14688;SDS011;7432;48.728;9.154;2023-06-04T03:26:20;7.73;;;6.93;;
14688;SDS011;7432;48.728;9.154;2023-06-04T03:28:46;8.00;;;7.40;;
14688;SDS011;7432;48.728;9.154;2023-06-04T03:31:13;11.53;;;7.60;;
14688;SDS011;7432;48.728;9.154;2023-06-04T03:33:39;7.23;;;6.63;;
14688;SDS011;7432;48.728;9.154;2023-06-04T03:36:06;7.10;;;6.40;;
14688;SDS011;7432;48.728;9.154;2023-06-04T03:38:33;7.07;;;6.40;;
14688;SDS011;7432;48.728;9.154;2023-06-04T03:41:00;7.50;;;6.63;;
14688;SDS011;7432;48.728;9.154;2023-06-04T03:43:26;7.97;;;6.50;;
14688;SDS011;7432;48.728;9.154;2023-06-04T03:45:52;6.70;;;6.10;;
14688;SDS011;7432;48.728;9.154;2023-06-04T03:48:19;6.97;;;6.37;;
14688;SDS011;7432;48.728;9.154;2023-06-04T03:50:45;6.90;;;6.40;;
14688;SDS011;7432;48.728;9.154;2023-06-04T03:53:12;6.73;;;6.20;;
14688;SDS011;7432;48.728;9.154;2023-06-04T03:55:40;6.90;;;6.20;;
14688;SDS011;7432;48.728;9.154;2023-06-04T03:58:06;6.53;;;6.00;;
14688;SDS011;7432;48.728;9.154;2023-06-04T04:00:34;6.77;;;6.20;;
14688;SDS011;7432;48.728;9.154;2023-06-04T04:03:00;9.03;;;6.47;;
14688;SDS011;7432;48.728;9.154;2023-06-04T04:05:27;7.83;;;6.40;;
14688;SDS011;7432;48.728;9.154;2023-06-04T04:07:54;6.40;;;5.90;;
14688;SDS011;7432;48.728;9.154;2023-06-04T04:10:20;6.80;;;6.23;;
14688;SDS011;7432;48.728;9.154;2023-06-04T04:12:48;6.20;;;5.60;;
14688;SDS011;7432;48.728;9.154;2023-06-04T04:15:16;6.30;;;5.80;;
14688;SDS011;7432;48.728;9.154;2023-06-04T04:17:42;6.90;;;6.20;;
14688;SDS011;7432;48.728;9.154;2023-06-04T04:20:09;8.57;;;6.87;;
14688;SDS011;7432;48.728;9.154;2023-06-04T04:22:39;6.53;;;5.93;;
14688;SDS011;7432;48.728;9.154;2023-06-04T04:25:06;6.10;;;5.70;;
14688;SDS011;7432;48.728;9.154;2023-06-04T04:27:33;6.13;;;5.60;;
14688;SDS011;7432;48.728;9.154;2023-06-04T04:30:05;6.30;;;5.80;;
14688;SDS011;7432;48.728;9.154;2023-06-04T04:32:33;7.07;;;5.27;;
14688;SDS011;7432;48.728;9.154;2023-06-04T04:34:59;6.30;;;5.80;;
14688;SDS011;7432;48.728;9.154;2023-06-04T04:37:25;7.30;;;5.90;;
14688;SDS011;7432;48.728;9.154;2023-06-04T04:39:52;6.37;;;5.47;;
14688;SDS011;7432;48.728;9.154;2023-06-04T04:42:18;6.57;;;5.83;;
14688;SDS011;7432;48.728;9.154;2023-06-04T04:44:44;6.67;;;6.13;;
14688;SDS011;7432;48.728;9.154;2023-06-04T04:47:14;7.23;;;5.53;;
14688;SDS011;7432;48.728;9.154;2023-06-04T04:49:41;6.27;;;5.70;;
14688;SDS011;7432;48.728;9.154;2023-06-04T04:52:07;6.27;;;5.73;;
14688;SDS011;7432;48.728;9.154;2023-06-04T04:54:34;6.03;;;5.50;;
14688;SDS011;7432;48.728;9.154;2023-06-04T04:57:00;6.87;;;5.67;;
14688;SDS011;7432;48.728;9.154;2023-06-04T04:59:26;6.57;;;5.90;;
14688;SDS011;7432;48.728;9.154;2023-06-04T05:01:53;7.03;;;5.73;;
14688;SDS011;7432;48.728;9.154;2023-06-04T05:04:20;6.73;;;5.50;;
14688;SDS011;7432;48.728;9.154;2023-06-04T05:06:47;6.13;;;5.60;;
14688;SDS011;7432;48.728;9.154;2023-06-04T05:09:13;6.43;;;5.90;;
14688;SDS011;7432;48.728;9.154;2023-06-04T05:11:40;6.40;;;5.43;;
14688;SDS011;7432;48.728;9.154;2023-06-04T05:14:07;6.03;;;5.53;;
14688;SDS011;7432;48.728;9.154;2023-06-04T05:16:33;6.37;;;5.87;;
14688;SDS011;7432;48.728;9.154;2023-06-04T05:19:00;6.33;;;5.30;;
14688;SDS011;7432;48.728;9.154;2023-06-04T05:21:28;6.10;;;5.50;;
14688;SDS011;7432;48.728;9.154;2023-06-04T05:23:54;6.30;;;5.83;;
14688;SDS011;7432;48.728;9.154;2023-06-04T05:26:21;5.63;;;5.13;;
14688;SDS011;7432;48.728;9.154;2023-06-04T05:28:48;5.97;;;5.40;;
14688;SDS011;7432;48.728;9.154;2023-06-04T05:31:14;6.03;;;5.53;;
14688;SDS011;7432;48.728;9.154;2023-06-04T05:33:43;6.13;;;5.63;;
14688;SDS011;7432;48.728;9.154;2023-06-04T05:36:09;8.30;;;5.67;;
14688;SDS011;7432;48.728;9.154;2023-06-04T05:38:38;5.67;;;5.27;;
14688;SDS011;7432;48.728;9.154;2023-06-04T05:41:05;6.30;;;5.47;;
14688;SDS011;7432;48.728;9.154;2023-06-04T05:43:31;5.63;;;5.13;;
14688;SDS011;7432;48.728;9.154;2023-06-04T05:45:57;5.57;;;5.03;;
14688;SDS011;7432;48.728;9.154;2023-06-04T05:48:24;5.93;;;5.10;;
14688;SDS011;7432;48.728;9.154;2023-06-04T05:50:51;5.80;;;5.30;;
14688;SDS011;7432;48.728;9.154;2023-06-04T05:53:17;5.77;;;5.27;;
14688;SDS011;7432;48.728;9.154;2023-06-04T05:55:45;5.63;;;5.23;;
14688;SDS011;7432;48.728;9.154;2023-06-04T05:58:11;5.30;;;4.90;;
14688;SDS011;7432;48.728;9.154;2023-06-04T06:00:38;5.90;;;5.27;;
14688;SDS011;7432;48.728;9.154;2023-06-04T06:03:05;5.27;;;4.77;;
14688;SDS011;7432;48.728;9.154;2023-06-04T06:05:32;5.43;;;5.00;;
14688;SDS011;7432;48.728;9.154;2023-06-04T06:07:58;5.60;;;5.17;;
14688;SDS011;7432;48.728;9.154;2023-06-04T06:10:24;5.63;;;5.13;;
14688;SDS011;7432;48.728;9.154;2023-06-04T06:12:52;6.00;;;5.53;;
14688;SDS011;7432;48.728;9.154;2023-06-04T06:15:18;5.70;;;5.30;;
14688;SDS011;7432;48.728;9.154;2023-06-04T06:17:45;5.28;;;4.70;;
14688;SDS011;7432;48.728;9.154;2023-06-04T06:20:11;5.47;;;5.07;;
14688;SDS011;7432;48.728;9.154;2023-06-04T06:22:42;5.78;;;5.38;;
14688;SDS011;7432;48.728;9.154;2023-06-04T06:25:09;6.20;;;5.60;;
14688;SDS011;7432;48.728;9.154;2023-06-04T06:27:37;5.90;;;5.32;;
14688;SDS011;7432;48.728;9.154;2023-06-04T06:30:06;6.28;;;5.68;;
14688;SDS011;7432;48.728;9.154;2023-06-04T06:32:33;6.00;;;5.40;;
14688;SDS011;7432;48.728;9.154;2023-06-04T06:35:00;5.55;;;5.20;;
14688;SDS011;7432;48.728;9.154;2023-06-04T06:37:27;5.93;;;5.32;;
14688;SDS011;7432;48.728;9.154;2023-06-04T06:39:53;5.88;;;5.30;;
14688;SDS011;7432;48.728;9.154;2023-06-04T06:42:20;5.70;;;5.30;;
14688;SDS011;7432;48.728;9.154;2023-06-04T06:44:46;5.43;;;5.13;;
14688;SDS011;7432;48.728;9.154;2023-06-04T06:47:14;5.35;;;4.95;;
14688;SDS011;7432;48.728;9.154;2023-06-04T06:49:40;6.03;;;5.47;;
14688;SDS011;7432;48.728;9.154;2023-06-04T06:52:07;5.65;;;5.25;;
14688;SDS011;7432;48.728;9.154;2023-06-04T06:54:33;5.70;;;5.40;;
14688;SDS011;7432;48.728;9.154;2023-06-04T06:56:59;8.43;;;5.78;;
14688;SDS011;7432;48.728;9.154;2023-06-04T06:59:27;5.97;;;5.60;;
14688;SDS011;7432;48.728;9.154;2023-06-04T07:01:54;5.78;;;5.38;;
14688;SDS011;7432;48.728;9.154;2023-06-04T07:04:21;6.78;;;5.55;;
14688;SDS011;7432;48.728;9.154;2023-06-04T07:06:48;6.35;;;5.40;;
14688;SDS011;7432;48.728;9.154;2023-06-04T07:09:14;5.68;;;5.28;;
14688;SDS011;7432;48.728;9.154;2023-06-04T07:11:41;6.28;;;5.68;;
14688;SDS011;7432;48.728;9.154;2023-06-04T07:14:07;7.13;;;5.53;;
14688;SDS011;7432;48.728;9.154;2023-06-04T07:16:34;5.90;;;5.28;;
14688;SDS011;7432;48.728;9.154;2023-06-04T07:19:00;6.53;;;5.93;;
14688;SDS011;7432;48.728;9.154;2023-06-04T07:21:28;6.30;;;5.80;;
14688;SDS011;7432;48.728;9.154;2023-06-04T07:23:55;6.00;;;5.60;;
14688;SDS011;7432;48.728;9.154;2023-06-04T07:26:21;5.85;;;5.45;;
14688;SDS011;7432;48.728;9.154;2023-06-04T07:28:50;5.60;;;5.20;;
14688;SDS011;7432;48.728;9.154;2023-06-04T07:31:16;5.55;;;5.15;;
14688;SDS011;7432;48.728;9.154;2023-06-04T07:33:43;6.07;;;5.57;;
14688;SDS011;7432;48.728;9.154;2023-06-04T07:36:10;6.30;;;5.90;;
14688;SDS011;7432;48.728;9.154;2023-06-04T07:38:39;6.18;;;5.68;;
14688;SDS011;7432;48.728;9.154;2023-06-04T07:41:06;6.30;;;5.90;;
14688;SDS011;7432;48.728;9.154;2023-06-04T07:43:33;6.38;;;5.88;;
14688;SDS011;7432;48.728;9.154;2023-06-04T07:46:00;6.38;;;5.97;;
14688;SDS011;7432;48.728;9.154;2023-06-04T07:48:26;6.32;;;5.93;;
14688;SDS011;7432;48.728;9.154;2023-06-04T07:50:55;6.20;;;5.70;;
14688;SDS011;7432;48.728;9.154;2023-06-04T07:53:22;6.10;;;5.70;;
14688;SDS011;7432;48.728;9.154;2023-06-04T07:55:50;6.30;;;5.80;;
14688;SDS011;7432;48.728;9.154;2023-06-04T07:58:16;6.35;;;5.93;;
14688;SDS011;7432;48.728;9.154;2023-06-04T08:00:43;6.38;;;5.88;;
14688;SDS011;7432;48.728;9.154;2023-06-04T08:03:09;6.60;;;6.00;;
14688;SDS011;7432;48.728;9.154;2023-06-04T08:05:36;6.20;;;5.90;;
14688;SDS011;7432;48.728;9.154;2023-06-04T08:08:02;8.65;;;5.72;;
14688;SDS011;7432;48.728;9.154;2023-06-04T08:10:29;6.30;;;5.70;;
14688;SDS011;7432;48.728;9.154;2023-06-04T08:12:57;6.28;;;5.93;;
14688;SDS011;7432;48.728;9.154;2023-06-04T08:15:23;6.50;;;6.00;;
14688;SDS011;7432;48.728;9.154;2023-06-04T08:17:50;6.82;;;6.32;;
14688;SDS011;7432;48.728;9.154;2023-06-04T08:20:16;6.97;;;6.38;;
14688;SDS011;7432;48.728;9.154;2023-06-04T08:22:43;6.40;;;6.00;;
14688;SDS011;7432;48.728;9.154;2023-06-04T08:25:09;6.78;;;6.28;;
14688;SDS011;7432;48.728;9.154;2023-06-04T08:27:36;7.30;;;6.13;;
14688;SDS011;7432;48.728;9.154;2023-06-04T08:30:04;6.68;;;6.07;;
14688;SDS011;7432;48.728;9.154;2023-06-04T08:32:32;6.80;;;6.22;;
14688;SDS011;7432;48.728;9.154;2023-06-04T08:34:58;6.88;;;6.28;;
14688;SDS011;7432;48.728;9.154;2023-06-04T08:37:24;6.90;;;6.47;;
14688;SDS011;7432;48.728;9.154;2023-06-04T08:39:51;7.25;;;6.57;;
14688;SDS011;7432;48.728;9.154;2023-06-04T08:42:18;7.30;;;6.70;;
14688;SDS011;7432;48.728;9.154;2023-06-04T08:44:49;6.90;;;6.40;;
14688;SDS011;7432;48.728;9.154;2023-06-04T08:47:19;7.13;;;6.43;;
14688;SDS011;7432;48.728;9.154;2023-06-04T08:49:47;7.93;;;7.27;;
14688;SDS011;7432;48.728;9.154;2023-06-04T08:52:16;7.60;;;7.00;;
14688;SDS011;7432;48.728;9.154;2023-06-04T08:54:46;7.75;;;7.00;;
14688;SDS011;7432;48.728;9.154;2023-06-04T08:57:14;6.70;;;6.18;;
14688;SDS011;7432;48.728;9.154;2023-06-04T08:59:42;6.85;;;6.45;;
14688;SDS011;7432;48.728;9.154;2023-06-04T09:02:08;6.90;;;6.50;;
14688;SDS011;7432;48.728;9.154;2023-06-04T09:04:38;6.97;;;6.43;;
14688;SDS011;7432;48.728;9.154;2023-06-04T09:07:05;7.20;;;6.60;;
14688;SDS011;7432;48.728;9.154;2023-06-04T09:09:36;7.45;;;6.85;;
14688;SDS011;7432;48.728;9.154;2023-06-04T09:12:05;6.70;;;6.18;;
14688;SDS011;7432;48.728;9.154;2023-06-04T09:14:36;7.20;;;6.60;;
14688;SDS011;7432;48.728;9.154;2023-06-04T09:17:02;6.80;;;6.30;;
14688;SDS011;7432;48.728;9.154;2023-06-04T09:19:29;7.50;;;6.85;;
14688;SDS011;7432;48.728;9.154;2023-06-04T09:21:57;6.95;;;6.35;;
14688;SDS011;7432;48.728;9.154;2023-06-04T09:24:24;7.50;;;6.75;;
14688;SDS011;7432;48.728;9.154;2023-06-04T09:26:51;8.38;;;6.50;;
14688;SDS011;7432;48.728;9.154;2023-06-04T09:29:18;7.30;;;6.70;;
14688;SDS011;7432;48.728;9.154;2023-06-04T09:31:45;6.70;;;6.22;;
14688;SDS011;7432;48.728;9.154;2023-06-04T09:34:12;7.15;;;6.70;;
14688;SDS011;7432;48.728;9.154;2023-06-04T09:36:39;7.35;;;6.75;;
14688;SDS011;7432;48.728;9.154;2023-06-04T09:39:15;9.93;;;6.70;;
14688;SDS011;7432;48.728;9.154;2023-06-04T09:41:42;7.22;;;6.72;;
14688;SDS011;7432;48.728;9.154;2023-06-04T09:44:09;7.20;;;6.70;;
14688;SDS011;7432;48.728;9.154;2023-06-04T09:46:37;6.90;;;6.50;;
14688;SDS011;7432;48.728;9.154;2023-06-04T09:49:04;7.50;;;6.80;;
14688;SDS011;7432;48.728;9.154;2023-06-04T09:51:31;6.95;;;6.45;;
14688;SDS011;7432;48.728;9.154;2023-06-04T09:53:58;7.35;;;6.65;;
14688;SDS011;7432;48.728;9.154;2023-06-04T09:56:28;7.13;;;6.55;;
14688;SDS011;7432;48.728;9.154;2023-06-04T09:58:57;8.20;;;6.45;;
14688;SDS011;7432;48.728;9.154;2023-06-04T10:01:26;7.13;;;6.72;;
14688;SDS011;7432;48.728;9.154;2023-06-04T10:03:54;8.10;;;7.40;;
14688;SDS011;7432;48.728;9.154;2023-06-04T10:06:24;8.30;;;7.47;;
14688;SDS011;7432;48.728;9.154;2023-06-04T10:08:52;7.90;;;7.20;;
14688;SDS011;7432;48.728;9.154;2023-06-04T10:11:22;7.30;;;6.70;;
14688;SDS011;7432;48.728;9.154;2023-06-04T10:14:00;7.15;;;6.70;;
14688;SDS011;7432;48.728;9.154;2023-06-04T10:16:29;7.40;;;6.85;;
14688;SDS011;7432;48.728;9.154;2023-06-04T10:18:58;8.45;;;7.55;;
14688;SDS011;7432;48.728;9.154;2023-06-04T10:21:25;8.85;;;7.68;;
14688;SDS011;7432;48.728;9.154;2023-06-04T10:23:52;7.68;;;7.07;;
14688;SDS011;7432;48.728;9.154;2023-06-04T10:26:19;7.55;;;7.05;;
14688;SDS011;7432;48.728;9.154;2023-06-04T10:28:46;8.25;;;7.55;;
14688;SDS011;7432;48.728;9.154;2023-06-04T10:31:15;9.30;;;7.65;;
14688;SDS011;7432;48.728;9.154;2023-06-04T10:33:42;7.95;;;7.18;;
14688;SDS011;7432;48.728;9.154;2023-06-04T10:36:17;8.63;;;8.02;;
14688;SDS011;7432;48.728;9.154;2023-06-04T10:38:46;8.73;;;8.07;;
14688;SDS011;7432;48.728;9.154;2023-06-04T10:41:15;8.30;;;7.70;;
14688;SDS011;7432;48.728;9.154;2023-06-04T10:43:43;8.30;;;7.60;;
14688;SDS011;7432;48.728;9.154;2023-06-04T10:46:11;9.20;;;8.32;;
14688;SDS011;7432;48.728;9.154;2023-06-04T10:48:45;9.02;;;7.70;;
14688;SDS011;7432;48.728;9.154;2023-06-04T10:51:15;7.90;;;7.20;;
14688;SDS011;7432;48.728;9.154;2023-06-04T10:53:43;8.45;;;7.70;;
14688;SDS011;7432;48.728;9.154;2023-06-04T10:56:09;8.00;;;7.30;;
14688;SDS011;7432;48.728;9.154;2023-06-04T10:58:36;8.27;;;7.72;;
14688;SDS011;7432;48.728;9.154;2023-06-04T11:01:02;9.55;;;7.72;;
14688;SDS011;7432;48.728;9.154;2023-06-04T11:03:34;8.77;;;7.95;;
14688;SDS011;7432;48.728;9.154;2023-06-04T11:06:13;9.13;;;8.27;;
14688;SDS011;7432;48.728;9.154;2023-06-04T11:08:41;8.43;;;7.80;;
14688;SDS011;7432;48.728;9.154;2023-06-04T11:11:10;7.68;;;7.18;;
14688;SDS011;7432;48.728;9.154;2023-06-04T11:13:37;7.90;;;7.30;;
14688;SDS011;7432;48.728;9.154;2023-06-04T11:16:05;7.90;;;7.20;;
14688;SDS011;7432;48.728;9.154;2023-06-04T11:18:40;8.23;;;7.70;;
14688;SDS011;7432;48.728;9.154;2023-06-04T11:21:08;8.75;;;7.55;;
14688;SDS011;7432;48.728;9.154;2023-06-04T11:23:36;7.80;;;7.25;;
14688;SDS011;7432;48.728;9.154;2023-06-04T11:26:02;7.97;;;7.47;;
14688;SDS011;7432;48.728;9.154;2023-06-04T11:28:29;7.70;;;7.20;;
14688;SDS011;7432;48.728;9.154;2023-06-04T11:30:56;7.93;;;7.32;;
14688;SDS011;7432;48.728;9.154;2023-06-04T11:33:23;8.13;;;7.35;;
14688;SDS011;7432;48.728;9.154;2023-06-04T11:35:50;7.90;;;7.50;;
14688;SDS011;7432;48.728;9.154;2023-06-04T11:38:17;7.80;;;7.20;;
14688;SDS011;7432;48.728;9.154;2023-06-04T11:40:44;7.88;;;7.30;;
14688;SDS011;7432;48.728;9.154;2023-06-04T11:43:10;8.68;;;7.35;;
14688;SDS011;7432;48.728;9.154;2023-06-04T11:45:37;8.32;;;7.60;;
14688;SDS011;7432;48.728;9.154;2023-06-04T11:48:04;7.65;;;7.00;;
14688;SDS011;7432;48.728;9.154;2023-06-04T11:50:31;8.43;;;7.63;;
14688;SDS011;7432;48.728;9.154;2023-06-04T11:52:58;7.97;;;7.47;;
14688;SDS011;7432;48.728;9.154;2023-06-04T11:55:26;8.27;;;7.45;;
14688;SDS011;7432;48.728;9.154;2023-06-04T11:57:53;8.40;;;7.80;;
14688;SDS011;7432;48.728;9.154;2023-06-04T12:00:20;8.98;;;8.18;;
14688;SDS011;7432;48.728;9.154;2023-06-04T12:02:50;8.85;;;8.25;;
14688;SDS011;7432;48.728;9.154;2023-06-04T12:05:18;8.45;;;7.70;;
14688;SDS011;7432;48.728;9.154;2023-06-04T12:07:47;12.18;;;8.15;;
14688;SDS011;7432;48.728;9.154;2023-06-04T12:10:15;8.45;;;7.68;;
14688;SDS011;7432;48.728;9.154;2023-06-04T12:12:43;8.15;;;7.35;;
14688;SDS011;7432;48.728;9.154;2023-06-04T12:15:10;7.93;;;7.20;;
14688;SDS011;7432;48.728;9.154;2023-06-04T12:17:37;8.50;;;7.90;;
14688;SDS011;7432;48.728;9.154;2023-06-04T12:20:04;8.10;;;7.30;;
14688;SDS011;7432;48.728;9.154;2023-06-04T12:22:31;8.18;;;7.40;;
14688;SDS011;7432;48.728;9.154;2023-06-04T12:24:57;8.23;;;7.53;;
14688;SDS011;7432;48.728;9.154;2023-06-04T12:27:27;8.68;;;7.97;;
14688;SDS011;7432;48.728;9.154;2023-06-04T12:29:56;8.27;;;7.68;;
14688;SDS011;7432;48.728;9.154;2023-06-04T12:32:23;8.50;;;7.80;;
14688;SDS011;7432;48.728;9.154;2023-06-04T12:34:50;7.28;;;6.70;;
14688;SDS011;7432;48.728;9.154;2023-06-04T12:37:17;8.45;;;7.65;;
14688;SDS011;7432;48.728;9.154;2023-06-04T12:39:43;8.10;;;7.30;;
14688;SDS011;7432;48.728;9.154;2023-06-04T12:42:10;8.75;;;7.93;;
14688;SDS011;7432;48.728;9.154;2023-06-04T12:44:36;8.85;;;7.90;;
14688;SDS011;7432;48.728;9.154;2023-06-04T12:47:05;8.80;;;8.10;;
14688;SDS011;7432;48.728;9.154;2023-06-04T12:49:32;8.75;;;7.90;;
14688;SDS011;7432;48.728;9.154;2023-06-04T12:51:58;8.00;;;7.40;;
14688;SDS011;7432;48.728;9.154;2023-06-04T12:54:25;7.40;;;6.90;;
14688;SDS011;7432;48.728;9.154;2023-06-04T12:56:52;7.72;;;7.22;;
14688;SDS011;7432;48.728;9.154;2023-06-04T12:59:18;8.43;;;7.72;;
14688;SDS011;7432;48.728;9.154;2023-06-04T13:01:45;8.52;;;7.88;;
14688;SDS011;7432;48.728;9.154;2023-06-04T13:04:13;8.65;;;7.85;;
14688;SDS011;7432;48.728;9.154;2023-06-04T13:06:39;8.95;;;8.25;;
14688;SDS011;7432;48.728;9.154;2023-06-04T13:09:06;8.98;;;8.18;;
14688;SDS011;7432;48.728;9.154;2023-06-04T13:11:34;8.35;;;7.65;;
14688;SDS011;7432;48.728;9.154;2023-06-04T13:14:01;8.20;;;7.60;;
14688;SDS011;7432;48.728;9.154;2023-06-04T13:16:27;8.13;;;7.53;;
14688;SDS011;7432;48.728;9.154;2023-06-04T13:18:54;8.15;;;7.43;;
14688;SDS011;7432;48.728;9.154;2023-06-04T13:21:22;9.00;;;8.20;;
14688;SDS011;7432;48.728;9.154;2023-06-04T13:23:48;8.40;;;7.60;;
14688;SDS011;7432;48.728;9.154;2023-06-04T13:26:15;8.48;;;7.88;;
14688;SDS011;7432;48.728;9.154;2023-06-04T13:28:41;8.13;;;7.57;;
14688;SDS011;7432;48.728;9.154;2023-06-04T13:31:08;8.23;;;7.53;;
14688;SDS011;7432;48.728;9.154;2023-06-04T13:33:34;7.72;;;7.03;;
14688;SDS011;7432;48.728;9.154;2023-06-04T13:36:01;7.78;;;7.18;;
14688;SDS011;7432;48.728;9.154;2023-06-04T13:38:30;7.63;;;7.07;;
14688;SDS011;7432;48.728;9.154;2023-06-04T13:40:56;8.52;;;7.82;;
14688;SDS011;7432;48.728;9.154;2023-06-04T13:43:22;8.02;;;7.43;;
14688;SDS011;7432;48.728;9.154;2023-06-04T13:45:49;8.27;;;7.70;;
14688;SDS011;7432;48.728;9.154;2023-06-04T13:48:15;9.07;;;8.38;;
14688;SDS011;7432;48.728;9.154;2023-06-04T13:50:42;8.88;;;8.23;;
14688;SDS011;7432;48.728;9.154;2023-06-04T13:53:08;8.32;;;7.72;;
14688;SDS011;7432;48.728;9.154;2023-06-04T13:55:37;9.25;;;8.45;;
14688;SDS011;7432;48.728;9.154;2023-06-04T13:58:03;8.65;;;7.95;;
14688;SDS011;7432;48.728;9.154;2023-06-04T14:00:29;8.73;;;7.90;;
14688;SDS011;7432;48.728;9.154;2023-06-04T14:02:56;8.48;;;7.65;;
14688;SDS011;7432;48.728;9.154;2023-06-04T14:05:24;8.40;;;7.70;;
14688;SDS011;7432;48.728;9.154;2023-06-04T14:07:52;8.93;;;8.23;;
14688;SDS011;7432;48.728;9.154;2023-06-04T14:10:19;8.73;;;8.13;;
14688;SDS011;7432;48.728;9.154;2023-06-04T14:12:47;8.85;;;8.15;;
14688;SDS011;7432;48.728;9.154;2023-06-04T14:15:13;8.82;;;8.02;;
14688;SDS011;7432;48.728;9.154;2023-06-04T14:17:39;8.95;;;8.35;;
14688;SDS011;7432;48.728;9.154;2023-06-04T14:20:06;8.45;;;7.65;;
14688;SDS011;7432;48.728;9.154;2023-06-04T14:22:33;8.43;;;7.55;;
14688;SDS011;7432;48.728;9.154;2023-06-04T14:25:00;9.38;;;8.68;;
14688;SDS011;7432;48.728;9.154;2023-06-04T14:27:27;8.60;;;8.00;;
14688;SDS011;7432;48.728;9.154;2023-06-04T14:29:55;7.90;;;7.40;;
14688;SDS011;7432;48.728;9.154;2023-06-04T14:32:22;8.50;;;7.80;;
14688;SDS011;7432;48.728;9.154;2023-06-04T14:34:48;8.48;;;7.70;;
14688;SDS011;7432;48.728;9.154;2023-06-04T14:37:14;8.27;;;7.78;;
14688;SDS011;7432;48.728;9.154;2023-06-04T14:39:41;8.98;;;8.32;;
14688;SDS011;7432;48.728;9.154;2023-06-04T14:42:07;8.52;;;7.93;;
14688;SDS011;7432;48.728;9.154;2023-06-04T14:44:33;8.88;;;8.18;;
14688;SDS011;7432;48.728;9.154;2023-06-04T14:47:01;9.07;;;8.27;;
14688;SDS011;7432;48.728;9.154;2023-06-04T14:49:28;8.95;;;8.18;;
14688;SDS011;7432;48.728;9.154;2023-06-04T14:51:54;8.15;;;7.55;;
14688;SDS011;7432;48.728;9.154;2023-06-04T14:54:20;8.68;;;7.95;;
14688;SDS011;7432;48.728;9.154;2023-06-04T14:56:47;8.65;;;7.95;;
14688;SDS011;7432;48.728;9.154;2023-06-04T14:59:13;8.02;;;7.45;;
14688;SDS011;7432;48.728;9.154;2023-06-04T15:01:39;8.38;;;7.80;;